KMAF/MAF METAR and TAF weather

Enter ICAO airport designator
Station Type Date Time Source
KMAF METAR 2020/07/11 20:53 UTC NOAA

KMAF 112053Z 15010G17KT 10SM CLR 40/08 A3002 RMK AO2 SLP108 T04000083 58020


Station Type Date Time Source
KMAF Decoded METAR 2020/07/11 20:53 UTC NOAA

MIDLAND INTERNATIONAL AIRPORT , TX, United States (KMAF) 31-56N 102-12W 872M
Jul 11, 2020 - 04:53 PM EDT / 2020.07.11 2053 UTC
Wind: from the SSE (150 degrees) at 12 MPH (10 KT) gusting to 20 MPH (17 KT):0
Visibility: 10 mile(s):0
Sky conditions: clear
Temperature: 104.0 F (40.0 C)
Dew Point: 46.9 F (8.3 C)
Relative Humidity: 14%
Pressure (altimeter): 30.02 in. Hg (1016 hPa)
Pressure tendency: 0.06 inches (2.0 hPa) lower than three hours ago
ob: KMAF 112053Z 15010G17KT 10SM CLR 40/08 A3002 RMK AO2 SLP108 T04000083 58020
cycle: 21

Station Type Date Time Source
KMAF TAF 2020/07/11 18:22 UTC NOAA

TAF KMAF 111720Z 1118/1218 17010KT P6SM SKC

Example: see airport list